sensor_id;sensor_type;location;lat;lon;timestamp;pressure;altitude;pressure_sealevel;temperature;humidity
30516;BME280;17297;54.022;10.760;2023-08-17T00:01:20;102210.81;;;21.22;61.48
30516;BME280;17297;54.022;10.760;2023-08-17T00:03:45;102199.88;;;21.22;61.30
30516;BME280;17297;54.022;10.760;2023-08-17T00:06:10;102211.88;;;21.21;61.09
30516;BME280;17297;54.022;10.760;2023-08-17T00:08:36;102210.19;;;21.20;61.32
30516;BME280;17297;54.022;10.760;2023-08-17T00:11:01;102202.00;;;21.20;61.38
30516;BME280;17297;54.022;10.760;2023-08-17T00:13:26;102211.28;;;21.19;61.29
30516;BME280;17297;54.022;10.760;2023-08-17T00:15:52;102208.53;;;21.19;61.44
30516;BME280;17297;54.022;10.760;2023-08-17T00:18:17;102214.00;;;21.19;61.53
30516;BME280;17297;54.022;10.760;2023-08-17T00:20:43;102213.19;;;21.19;61.41
30516;BME280;17297;54.022;10.760;2023-08-17T00:23:09;102216.97;;;21.18;61.34
30516;BME280;17297;54.022;10.760;2023-08-17T00:25:34;102214.47;;;21.16;60.94
30516;BME280;17297;54.022;10.760;2023-08-17T00:28:00;102211.34;;;21.13;61.23
30516;BME280;17297;54.022;10.760;2023-08-17T00:30:25;102206.94;;;21.12;61.19
30516;BME280;17297;54.022;10.760;2023-08-17T00:32:50;102212.84;;;21.09;61.17
30516;BME280;17297;54.022;10.760;2023-08-17T00:35:18;102210.34;;;21.07;60.99
30516;BME280;17297;54.022;10.760;2023-08-17T00:37:43;102200.69;;;21.05;61.35
30516;BME280;17297;54.022;10.760;2023-08-17T00:40:09;102199.25;;;21.02;61.16
30516;BME280;17297;54.022;10.760;2023-08-17T00:42:35;102203.28;;;20.99;61.24
30516;BME280;17297;54.022;10.760;2023-08-17T00:45:00;102200.78;;;20.98;61.54
30516;BME280;17297;54.022;10.760;2023-08-17T00:47:27;102194.69;;;20.96;61.71
30516;BME280;17297;54.022;10.760;2023-08-17T00:49:53;102192.19;;;20.94;61.92
30516;BME280;17297;54.022;10.760;2023-08-17T00:52:19;102196.84;;;20.94;62.31
30516;BME280;17297;54.022;10.760;2023-08-17T00:54:44;102204.66;;;20.90;62.24
30516;BME280;17297;54.022;10.760;2023-08-17T00:57:09;102196.66;;;20.89;62.24
30516;BME280;17297;54.022;10.760;2023-08-17T00:59:35;102205.72;;;20.89;62.31
30516;BME280;17297;54.022;10.760;2023-08-17T01:02:01;102207.41;;;20.90;62.58
30516;BME280;17297;54.022;10.760;2023-08-17T01:04:27;102204.88;;;20.89;62.62
30516;BME280;17297;54.022;10.760;2023-08-17T01:06:52;102204.03;;;20.88;62.65
30516;BME280;17297;54.022;10.760;2023-08-17T01:09:18;102191.44;;;20.87;62.67
30516;BME280;17297;54.022;10.760;2023-08-17T01:11:57;102183.44;;;20.86;62.60
30516;BME280;17297;54.022;10.760;2023-08-17T01:14:31;102178.81;;;20.86;62.47
30516;BME280;17297;54.022;10.760;2023-08-17T01:17:06;102178.22;;;20.84;62.79
30516;BME280;17297;54.022;10.760;2023-08-17T01:19:37;102179.06;;;20.85;62.76
30516;BME280;17297;54.022;10.760;2023-08-17T01:22:05;102166.41;;;20.84;62.85
30516;BME280;17297;54.022;10.760;2023-08-17T01:24:31;102160.38;;;20.82;63.01
30516;BME280;17297;54.022;10.760;2023-08-17T01:26:56;102157.84;;;20.80;63.25
30516;BME280;17297;54.022;10.760;2023-08-17T01:29:22;102157.25;;;20.78;63.34
30516;BME280;17297;54.022;10.760;2023-08-17T01:32:06;102151.38;;;20.74;63.25
30516;BME280;17297;54.022;10.760;2023-08-17T01:34:40;102147.22;;;20.72;63.70
30516;BME280;17297;54.022;10.760;2023-08-17T01:37:10;102147.59;;;20.75;63.22
30516;BME280;17297;54.022;10.760;2023-08-17T01:39:37;102140.50;;;20.68;63.62
30516;BME280;17297;54.022;10.760;2023-08-17T01:42:05;102144.53;;;20.65;64.11
30516;BME280;17297;54.022;10.760;2023-08-17T01:44:32;102139.31;;;20.64;63.85
30516;BME280;17297;54.022;10.760;2023-08-17T01:46:57;102139.50;;;20.62;64.57
30516;BME280;17297;54.022;10.760;2023-08-17T01:49:22;102144.16;;;20.62;64.47
30516;BME280;17297;54.022;10.760;2023-08-17T01:51:48;102137.03;;;20.61;64.48
30516;BME280;17297;54.022;10.760;2023-08-17T01:54:13;102129.06;;;20.59;64.48
30516;BME280;17297;54.022;10.760;2023-08-17T01:59:05;102140.44;;;20.56;64.94
30516;BME280;17297;54.022;10.760;2023-08-17T02:01:30;102146.97;;;20.55;64.84
30516;BME280;17297;54.022;10.760;2023-08-17T02:03:56;102149.09;;;20.53;64.72
30516;BME280;17297;54.022;10.760;2023-08-17T02:06:21;102151.84;;;20.53;64.76
30516;BME280;17297;54.022;10.760;2023-08-17T02:08:46;102151.19;;;20.51;65.33
30516;BME280;17297;54.022;10.760;2023-08-17T02:11:13;102151.19;;;20.51;65.03
30516;BME280;17297;54.022;10.760;2023-08-17T02:13:38;102155.81;;;20.50;65.15
30516;BME280;17297;54.022;10.760;2023-08-17T02:16:04;102147.63;;;20.50;65.41
30516;BME280;17297;54.022;10.760;2023-08-17T02:18:29;102150.34;;;20.50;65.21
30516;BME280;17297;54.022;10.760;2023-08-17T02:20:57;102155.00;;;20.50;65.34
30516;BME280;17297;54.022;10.760;2023-08-17T02:23:22;102155.00;;;20.50;65.72
30516;BME280;17297;54.022;10.760;2023-08-17T02:25:48;102157.72;;;20.50;65.44
30516;BME280;17297;54.022;10.760;2023-08-17T02:28:13;102149.53;;;20.50;65.64
30516;BME280;17297;54.022;10.760;2023-08-17T02:30:38;102160.91;;;20.47;65.72
30516;BME280;17297;54.022;10.760;2023-08-17T02:33:04;102159.22;;;20.46;65.58
30516;BME280;17297;54.022;10.760;2023-08-17T02:35:29;102162.19;;;20.44;66.04
30516;BME280;17297;54.022;10.760;2023-08-17T02:37:55;102166.56;;;20.45;66.08
30516;BME280;17297;54.022;10.760;2023-08-17T02:40:20;102166.56;;;20.45;65.54
30516;BME280;17297;54.022;10.760;2023-08-17T02:42:46;102161.09;;;20.45;66.03
30516;BME280;17297;54.022;10.760;2023-08-17T02:45:11;102157.53;;;20.45;65.74
30516;BME280;17297;54.022;10.760;2023-08-17T02:47:36;102163.84;;;20.45;66.11
30516;BME280;17297;54.022;10.760;2023-08-17T02:50:02;102179.41;;;20.45;65.84
30516;BME280;17297;54.022;10.760;2023-08-17T02:52:27;102155.88;;;20.44;65.78
30516;BME280;17297;54.022;10.760;2023-08-17T02:54:53;102167.03;;;20.42;65.79
30516;BME280;17297;54.022;10.760;2023-08-17T02:57:18;102157.16;;;20.41;65.92
30516;BME280;17297;54.022;10.760;2023-08-17T02:59:45;102160.09;;;20.40;66.14
30516;BME280;17297;54.022;10.760;2023-08-17T03:02:10;102157.81;;;20.37;65.85
30516;BME280;17297;54.022;10.760;2023-08-17T03:04:36;102160.56;;;20.37;65.79
30516;BME280;17297;54.022;10.760;2023-08-17T03:07:01;102168.16;;;20.35;66.04
30516;BME280;17297;54.022;10.760;2023-08-17T03:09:26;102162.91;;;20.33;66.23
30516;BME280;17297;54.022;10.760;2023-08-17T03:11:52;102166.72;;;20.32;66.02
30516;BME280;17297;54.022;10.760;2023-08-17T03:14:17;102170.28;;;20.33;66.11
30516;BME280;17297;54.022;10.760;2023-08-17T03:16:42;102173.44;;;20.29;65.99
30516;BME280;17297;54.022;10.760;2023-08-17T03:19:08;102166.31;;;20.28;66.47
30516;BME280;17297;54.022;10.760;2023-08-17T03:21:36;102171.78;;;20.28;66.45
30516;BME280;17297;54.022;10.760;2023-08-17T03:24:01;102173.69;;;20.28;66.64
30516;BME280;17297;54.022;10.760;2023-08-17T03:26:27;102167.59;;;20.26;66.87
30516;BME280;17297;54.022;10.760;2023-08-17T03:28:53;102158.56;;;20.25;66.81
30516;BME280;17297;54.022;10.760;2023-08-17T03:31:23;102155.00;;;20.25;66.84
30516;BME280;17297;54.022;10.760;2023-08-17T03:33:49;102152.28;;;20.25;66.54
30516;BME280;17297;54.022;10.760;2023-08-17T03:36:15;102155.22;;;20.23;66.84
30516;BME280;17297;54.022;10.760;2023-08-17T03:38:41;102168.66;;;20.25;67.27
30516;BME280;17297;54.022;10.760;2023-08-17T03:41:06;102166.13;;;20.23;67.31
30516;BME280;17297;54.022;10.760;2023-08-17T03:43:32;102163.66;;;20.22;67.44
30516;BME280;17297;54.022;10.760;2023-08-17T03:45:59;102163.66;;;20.22;67.10
30516;BME280;17297;54.022;10.760;2023-08-17T03:48:24;102153.56;;;20.22;67.10
30516;BME280;17297;54.022;10.760;2023-08-17T03:50:54;102160.28;;;20.20;67.64
30516;BME280;17297;54.022;10.760;2023-08-17T03:53:20;102155.91;;;20.19;67.39
30516;BME280;17297;54.022;10.760;2023-08-17T03:55:49;102157.19;;;20.16;67.45
30516;BME280;17297;54.022;10.760;2023-08-17T03:58:16;102157.38;;;20.15;67.79
30516;BME280;17297;54.022;10.760;2023-08-17T04:00:48;102153.19;;;20.12;68.19
30516;BME280;17297;54.022;10.760;2023-08-17T04:03:14;102161.63;;;20.11;68.17
30516;BME280;17297;54.022;10.760;2023-08-17T04:05:40;102162.69;;;20.10;68.16
30516;BME280;17297;54.022;10.760;2023-08-17T04:08:05;102162.91;;;20.08;67.98
30516;BME280;17297;54.022;10.760;2023-08-17T04:10:30;102162.06;;;20.07;68.47
30516;BME280;17297;54.022;10.760;2023-08-17T04:12:59;102161.44;;;20.05;68.19
30516;BME280;17297;54.022;10.760;2023-08-17T04:15:24;102160.84;;;20.03;68.82
30516;BME280;17297;54.022;10.760;2023-08-17T04:17:50;102161.69;;;20.04;68.59
30516;BME280;17297;54.022;10.760;2023-08-17T04:20:15;102172.59;;;20.04;68.61
30516;BME280;17297;54.022;10.760;2023-08-17T04:22:41;102170.72;;;20.04;68.72
30516;BME280;17297;54.022;10.760;2023-08-17T04:25:06;102162.50;;;20.04;68.95
30516;BME280;17297;54.022;10.760;2023-08-17T04:27:33;102165.25;;;20.04;68.86
30516;BME280;17297;54.022;10.760;2023-08-17T04:29:58;102167.34;;;20.02;69.01
30516;BME280;17297;54.022;10.760;2023-08-17T04:32:25;102166.53;;;20.02;69.19
30516;BME280;17297;54.022;10.760;2023-08-17T04:34:50;102169.50;;;20.00;69.39
30516;BME280;17297;54.022;10.760;2023-08-17T04:37:16;102170.31;;;20.01;69.45
30516;BME280;17297;54.022;10.760;2023-08-17T04:39:41;102169.69;;;19.99;70.11
30516;BME280;17297;54.022;10.760;2023-08-17T04:42:09;102172.22;;;20.00;69.66
30516;BME280;17297;54.022;10.760;2023-08-17T04:44:35;102171.59;;;19.98;69.58
30516;BME280;17297;54.022;10.760;2023-08-17T04:47:01;102176.22;;;19.98;69.94
30516;BME280;17297;54.022;10.760;2023-08-17T04:49:26;102173.50;;;19.98;69.73
30516;BME280;17297;54.022;10.760;2023-08-17T04:51:53;102183.78;;;19.96;69.88
30516;BME280;17297;54.022;10.760;2023-08-17T04:54:19;102179.16;;;19.96;69.90
30516;BME280;17297;54.022;10.760;2023-08-17T04:56:46;102181.06;;;19.96;69.83
30516;BME280;17297;54.022;10.760;2023-08-17T04:59:12;102181.06;;;19.96;70.17
30516;BME280;17297;54.022;10.760;2023-08-17T05:01:38;102174.75;;;19.95;70.34
30516;BME280;17297;54.022;10.760;2023-08-17T05:04:04;102180.22;;;19.95;70.67
30516;BME280;17297;54.022;10.760;2023-08-17T05:06:30;102180.00;;;19.97;70.61
30516;BME280;17297;54.022;10.760;2023-08-17T05:08:56;102182.72;;;19.97;70.47
30516;BME280;17297;54.022;10.760;2023-08-17T05:11:23;102187.34;;;19.96;70.44
30516;BME280;17297;54.022;10.760;2023-08-17T05:13:49;102184.41;;;19.98;70.36
30516;BME280;17297;54.022;10.760;2023-08-17T05:16:14;102189.03;;;19.97;70.32
30516;BME280;17297;54.022;10.760;2023-08-17T05:18:40;102191.53;;;19.99;70.37
30516;BME280;17297;54.022;10.760;2023-08-17T05:21:07;102185.00;;;20.00;70.48
30516;BME280;17297;54.022;10.760;2023-08-17T05:23:32;102193.00;;;20.01;70.57
30516;BME280;17297;54.022;10.760;2023-08-17T05:25:58;102186.47;;;20.02;70.61
30516;BME280;17297;54.022;10.760;2023-08-17T05:28:24;102190.66;;;20.05;70.69
30516;BME280;17297;54.022;10.760;2023-08-17T05:30:49;102185.19;;;20.05;70.86
30516;BME280;17297;54.022;10.760;2023-08-17T05:33:15;102191.50;;;20.05;70.49
30516;BME280;17297;54.022;10.760;2023-08-17T05:35:40;102200.31;;;20.07;70.46
30516;BME280;17297;54.022;10.760;2023-08-17T05:38:08;102200.31;;;20.07;70.82
30516;BME280;17297;54.022;10.760;2023-08-17T05:40:34;102203.03;;;20.07;70.45
30516;BME280;17297;54.022;10.760;2023-08-17T05:42:59;102198.41;;;20.08;70.84
30516;BME280;17297;54.022;10.760;2023-08-17T05:45:25;102207.44;;;20.08;70.83
30516;BME280;17297;54.022;10.760;2023-08-17T05:47:51;102208.28;;;20.09;70.47
30516;BME280;17297;54.022;10.760;2023-08-17T05:50:17;102209.34;;;20.08;70.77
30516;BME280;17297;54.022;10.760;2023-08-17T05:52:42;102216.47;;;20.09;70.58
30516;BME280;17297;54.022;10.760;2023-08-17T05:55:07;102209.13;;;20.10;70.90
30516;BME280;17297;54.022;10.760;2023-08-17T05:57:33;102214.34;;;20.11;70.85
30516;BME280;17297;54.022;10.760;2023-08-17T05:59:59;102216.03;;;20.12;70.84
30516;BME280;17297;54.022;10.760;2023-08-17T06:02:24;102216.03;;;20.12;70.92
30516;BME280;17297;54.022;10.760;2023-08-17T06:04:49;102211.44;;;20.13;70.71
30516;BME280;17297;54.022;10.760;2023-08-17T06:07:15;102212.25;;;20.13;70.88
30516;BME280;17297;54.022;10.760;2023-08-17T06:09:40;102209.53;;;20.13;70.93
30516;BME280;17297;54.022;10.760;2023-08-17T06:12:06;102211.19;;;20.14;71.18
30516;BME280;17297;54.022;10.760;2023-08-17T06:14:33;102213.47;;;20.17;70.99
30516;BME280;17297;54.022;10.760;2023-08-17T06:16:59;102220.00;;;20.16;70.99
30516;BME280;17297;54.022;10.760;2023-08-17T06:19:26;102219.78;;;20.18;71.31
30516;BME280;17297;54.022;10.760;2023-08-17T06:21:51;102215.75;;;20.20;71.14
30516;BME280;17297;54.022;10.760;2023-08-17T06:24:17;102230.06;;;20.22;71.04
30516;BME280;17297;54.022;10.760;2023-08-17T06:26:43;102227.09;;;20.24;71.63
30516;BME280;17297;54.022;10.760;2023-08-17T06:29:08;102238.00;;;20.24;71.10
30516;BME280;17297;54.022;10.760;2023-08-17T06:31:33;102242.19;;;20.26;71.10
30516;BME280;17297;54.022;10.760;2023-08-17T06:33:59;102251.84;;;20.29;71.26
30516;BME280;17297;54.022;10.760;2023-08-17T06:36:24;102256.25;;;20.30;71.59
30516;BME280;17297;54.022;10.760;2023-08-17T06:38:49;102258.78;;;20.32;71.34
30516;BME280;17297;54.022;10.760;2023-08-17T06:41:16;102264.00;;;20.33;71.67
30516;BME280;17297;54.022;10.760;2023-08-17T06:43:41;102266.53;;;20.35;71.56
30516;BME280;17297;54.022;10.760;2023-08-17T06:46:06;102268.19;;;20.36;71.70
30516;BME280;17297;54.022;10.760;2023-08-17T06:48:32;102271.56;;;20.38;71.62
30516;BME280;17297;54.022;10.760;2023-08-17T06:50:57;102277.84;;;20.38;71.67
30516;BME280;17297;54.022;10.760;2023-08-17T06:53:23;102276.59;;;20.41;71.94
30516;BME280;17297;54.022;10.760;2023-08-17T06:55:48;102272.78;;;20.42;72.62
30516;BME280;17297;54.022;10.760;2023-08-17T06:58:13;102276.34;;;20.42;72.55
30516;BME280;17297;54.022;10.760;2023-08-17T07:00:38;102269.81;;;20.43;73.01
30516;BME280;17297;54.022;10.760;2023-08-17T07:03:06;102268.97;;;20.43;73.17
30516;BME280;17297;54.022;10.760;2023-08-17T07:05:31;102260.78;;;20.43;73.78
30516;BME280;17297;54.022;10.760;2023-08-17T07:07:57;102252.38;;;20.44;73.62
30516;BME280;17297;54.022;10.760;2023-08-17T07:10:22;102243.94;;;20.46;74.16
30516;BME280;17297;54.022;10.760;2023-08-17T07:12:48;102244.78;;;20.46;74.02
30516;BME280;17297;54.022;10.760;2023-08-17T07:15:13;102248.56;;;20.45;74.31
30516;BME280;17297;54.022;10.760;2023-08-17T07:17:40;102246.66;;;20.46;74.10
30516;BME280;17297;54.022;10.760;2023-08-17T07:20:06;102236.56;;;20.46;73.92
30516;BME280;17297;54.022;10.760;2023-08-17T07:22:32;102241.81;;;20.48;74.35
30516;BME280;17297;54.022;10.760;2023-08-17T07:24:58;102245.41;;;20.48;74.23
30516;BME280;17297;54.022;10.760;2023-08-17T07:27:23;102239.94;;;20.48;74.39
30516;BME280;17297;54.022;10.760;2023-08-17T07:29:48;102238.03;;;20.49;74.45
30516;BME280;17297;54.022;10.760;2023-08-17T07:32:14;102235.28;;;20.49;74.56
30516;BME280;17297;54.022;10.760;2023-08-17T07:34:39;102238.84;;;20.49;74.81
30516;BME280;17297;54.022;10.760;2023-08-17T07:37:04;102236.97;;;20.50;74.61
30516;BME280;17297;54.022;10.760;2023-08-17T07:39:30;102238.84;;;20.49;74.73
30516;BME280;17297;54.022;10.760;2023-08-17T07:41:55;102236.97;;;20.50;74.80
30516;BME280;17297;54.022;10.760;2023-08-17T07:44:21;102238.66;;;20.51;74.98
30516;BME280;17297;54.022;10.760;2023-08-17T07:46:46;102244.78;;;20.53;75.08
30516;BME280;17297;54.022;10.760;2023-08-17T07:49:11;102246.00;;;20.57;75.52
30516;BME280;17297;54.022;10.760;2023-08-17T07:51:37;102246.63;;;20.59;75.30
30516;BME280;17297;54.022;10.760;2023-08-17T07:54:03;102248.28;;;20.60;75.44
30516;BME280;17297;54.022;10.760;2023-08-17T07:56:30;102241.97;;;20.60;75.39
30516;BME280;17297;54.022;10.760;2023-08-17T07:58:55;102244.72;;;20.60;75.33
30516;BME280;17297;54.022;10.760;2023-08-17T08:01:20;102243.00;;;20.59;75.48
30516;BME280;17297;54.022;10.760;2023-08-17T08:03:46;102248.28;;;20.60;75.06
30516;BME280;17297;54.022;10.760;2023-08-17T08:06:11;102242.81;;;20.60;75.10
30516;BME280;17297;54.022;10.760;2023-08-17T08:08:37;102234.38;;;20.62;75.19
30516;BME280;17297;54.022;10.760;2023-08-17T08:11:04;102228.69;;;20.63;75.17
30516;BME280;17297;54.022;10.760;2023-08-17T08:13:30;102223.22;;;20.63;75.24
30516;BME280;17297;54.022;10.760;2023-08-17T08:15:56;102235.81;;;20.64;74.96
30516;BME280;17297;54.022;10.760;2023-08-17T08:18:21;102222.16;;;20.64;74.99
30516;BME280;17297;54.022;10.760;2023-08-17T08:20:46;102221.09;;;20.65;74.53
30516;BME280;17297;54.022;10.760;2023-08-17T08:23:12;102217.06;;;20.68;74.79
30516;BME280;17297;54.022;10.760;2023-08-17T08:25:37;102224.22;;;20.69;74.67
30516;BME280;17297;54.022;10.760;2023-08-17T08:28:03;102215.16;;;20.68;74.68
30516;BME280;17297;54.022;10.760;2023-08-17T08:30:28;102225.91;;;20.70;74.35
30516;BME280;17297;54.022;10.760;2023-08-17T08:32:53;102218.53;;;20.70;74.34
30516;BME280;17297;54.022;10.760;2023-08-17T08:35:22;102213.88;;;20.71;74.16
30516;BME280;17297;54.022;10.760;2023-08-17T08:37:49;102217.25;;;20.73;74.00
30516;BME280;17297;54.022;10.760;2023-08-17T08:40:16;102218.91;;;20.74;74.38
30516;BME280;17297;54.022;10.760;2023-08-17T08:42:42;102212.97;;;20.77;74.29
30516;BME280;17297;54.022;10.760;2023-08-17T08:45:08;102211.94;;;20.78;74.29
30516;BME280;17297;54.022;10.760;2023-08-17T08:47:36;102209.22;;;20.78;74.12
30516;BME280;17297;54.022;10.760;2023-08-17T08:50:03;102204.31;;;20.80;73.94
30516;BME280;17297;54.022;10.760;2023-08-17T08:52:37;102210.41;;;20.82;74.15
30516;BME280;17297;54.022;10.760;2023-08-17T08:55:11;102209.34;;;20.83;73.91
30516;BME280;17297;54.022;10.760;2023-08-17T08:57:38;102219.25;;;20.84;74.13
30516;BME280;17297;54.022;10.760;2023-08-17T09:00:05;102213.53;;;20.86;74.20
30516;BME280;17297;54.022;10.760;2023-08-17T09:02:31;102213.31;;;20.87;74.17
30516;BME280;17297;54.022;10.760;2023-08-17T09:04:57;102219.00;;;20.86;73.75
30516;BME280;17297;54.022;10.760;2023-08-17T09:07:25;102211.63;;;20.86;74.03
30516;BME280;17297;54.022;10.760;2023-08-17T09:09:51;102212.47;;;20.87;73.98
30516;BME280;17297;54.022;10.760;2023-08-17T09:12:17;102214.97;;;20.88;74.38
30516;BME280;17297;54.022;10.760;2023-08-17T09:14:42;102216.88;;;20.88;74.28
30516;BME280;17297;54.022;10.760;2023-08-17T09:17:07;102214.97;;;20.88;74.52
30516;BME280;17297;54.022;10.760;2023-08-17T09:19:33;102214.97;;;20.88;74.34
30516;BME280;17297;54.022;10.760;2023-08-17T09:21:59;102225.47;;;20.91;74.37
30516;BME280;17297;54.022;10.760;2023-08-17T09:24:33;102210.59;;;20.87;74.53
30516;BME280;17297;54.022;10.760;2023-08-17T09:26:59;102209.72;;;20.87;74.72
30516;BME280;17297;54.022;10.760;2023-08-17T09:29:25;102201.53;;;20.87;74.70
30516;BME280;17297;54.022;10.760;2023-08-17T09:31:50;102198.56;;;20.88;74.91
30516;BME280;17297;54.022;10.760;2023-08-17T09:34:16;102191.19;;;20.89;74.82
30516;BME280;17297;54.022;10.760;2023-08-17T09:36:41;102197.28;;;20.91;75.16
30516;BME280;17297;54.022;10.760;2023-08-17T09:39:07;102200.63;;;20.93;75.07
30516;BME280;17297;54.022;10.760;2023-08-17T09:41:40;102206.72;;;20.95;75.27
30516;BME280;17297;54.022;10.760;2023-08-17T09:44:06;102205.03;;;20.94;75.28
30516;BME280;17297;54.022;10.760;2023-08-17T09:46:32;102216.56;;;20.96;75.14
30516;BME280;17297;54.022;10.760;2023-08-17T09:48:58;102216.81;;;20.94;74.94
30516;BME280;17297;54.022;10.760;2023-08-17T09:51:23;102214.91;;;20.95;75.23
30516;BME280;17297;54.022;10.760;2023-08-17T09:53:52;102202.91;;;20.96;75.45
30516;BME280;17297;54.022;10.760;2023-08-17T09:56:22;102196.59;;;20.95;75.16
30516;BME280;17297;54.022;10.760;2023-08-17T09:58:49;102190.91;;;20.97;75.06
30516;BME280;17297;54.022;10.760;2023-08-17T10:01:15;102195.53;;;20.96;75.06
30516;BME280;17297;54.022;10.760;2023-08-17T10:03:42;102199.13;;;20.97;75.44
30516;BME280;17297;54.022;10.760;2023-08-17T10:06:10;102199.94;;;20.97;75.11
30516;BME280;17297;54.022;10.760;2023-08-17T10:08:42;102205.41;;;20.97;75.24
30516;BME280;17297;54.022;10.760;2023-08-17T10:11:08;102205.19;;;20.99;75.43
30516;BME280;17297;54.022;10.760;2023-08-17T10:13:39;102198.66;;;21.00;75.39
30516;BME280;17297;54.022;10.760;2023-08-17T10:16:22;102202.44;;;20.99;75.51
30516;BME280;17297;54.022;10.760;2023-08-17T10:21:32;102200.78;;;20.98;75.68
30516;BME280;17297;54.022;10.760;2023-08-17T10:23:59;102208.16;;;20.97;75.54
30516;BME280;17297;54.022;10.760;2023-08-17T10:26:26;102210.88;;;20.97;75.38
30516;BME280;17297;54.022;10.760;2023-08-17T10:28:53;102199.72;;;20.99;75.83
30516;BME280;17297;54.022;10.760;2023-08-17T10:31:20;102205.19;;;20.99;75.69
30516;BME280;17297;54.022;10.760;2023-08-17T10:33:46;102197.81;;;20.99;76.04
30516;BME280;17297;54.022;10.760;2023-08-17T10:36:13;102199.72;;;20.99;75.57
30516;BME280;17297;54.022;10.760;2023-08-17T10:38:39;102198.88;;;20.98;75.58
30516;BME280;17297;54.022;10.760;2023-08-17T10:41:12;102194.47;;;20.97;75.99
30516;BME280;17297;54.022;10.760;2023-08-17T10:43:59;102196.59;;;20.95;75.91
30516;BME280;17297;54.022;10.760;2023-08-17T10:46:37;102192.41;;;20.93;75.81
30516;BME280;17297;54.022;10.760;2023-08-17T10:49:05;102202.75;;;20.91;75.37
30516;BME280;17297;54.022;10.760;2023-08-17T10:51:31;102202.75;;;20.91;75.69
30516;BME280;17297;54.022;10.760;2023-08-17T10:53:58;102214.16;;;20.88;75.68
30516;BME280;17297;54.022;10.760;2023-08-17T10:56:27;102208.91;;;20.86;75.85
30516;BME280;17297;54.022;10.760;2023-08-17T10:58:52;102204.72;;;20.84;75.75
30516;BME280;17297;54.022;10.760;2023-08-17T11:01:35;102209.59;;;20.82;75.76
30516;BME280;17297;54.022;10.760;2023-08-17T11:04:16;102199.94;;;20.79;75.93
30516;BME280;17297;54.022;10.760;2023-08-17T11:06:43;102213.81;;;20.77;76.15
30516;BME280;17297;54.022;10.760;2023-08-17T11:09:09;102201.22;;;20.76;75.68
30516;BME280;17297;54.022;10.760;2023-08-17T11:11:34;102196.00;;;20.75;76.08
30516;BME280;17297;54.022;10.760;2023-08-17T11:14:00;102203.56;;;20.73;76.18
30516;BME280;17297;54.022;10.760;2023-08-17T11:16:25;102211.16;;;20.71;75.98
30516;BME280;17297;54.022;10.760;2023-08-17T11:18:51;102209.25;;;20.71;76.52
30516;BME280;17297;54.022;10.760;2023-08-17T11:21:17;102218.91;;;20.74;76.87
30516;BME280;17297;54.022;10.760;2023-08-17T11:23:43;102217.25;;;20.73;76.68
30516;BME280;17297;54.022;10.760;2023-08-17T11:26:09;102212.22;;;20.70;76.54
30516;BME280;17297;54.022;10.760;2023-08-17T11:28:35;102213.50;;;20.67;76.48
30516;BME280;17297;54.022;10.760;2023-08-17T11:31:09;102209.09;;;20.66;76.59
30516;BME280;17297;54.022;10.760;2023-08-17T11:33:36;102214.19;;;20.63;76.83
30516;BME280;17297;54.022;10.760;2023-08-17T11:36:04;102208.34;;;20.59;76.58
30516;BME280;17297;54.022;10.760;2023-08-17T11:38:32;102197.84;;;20.56;76.58
30516;BME280;17297;54.022;10.760;2023-08-17T11:40:58;102203.31;;;20.56;77.03
30516;BME280;17297;54.022;10.760;2023-08-17T11:43:24;102217.00;;;20.56;77.19
30516;BME280;17297;54.022;10.760;2023-08-17T11:45:51;102206.25;;;20.55;77.32
30516;BME280;17297;54.022;10.760;2023-08-17T11:48:18;102215.53;;;20.53;77.44
30516;BME280;17297;54.022;10.760;2023-08-17T11:50:44;102216.16;;;20.49;76.37
30516;BME280;17297;54.022;10.760;2023-08-17T11:53:10;102217.06;;;20.43;76.15
30516;BME280;17297;54.022;10.760;2023-08-17T11:55:36;102206.56;;;20.40;76.22
30516;BME280;17297;54.022;10.760;2023-08-17T11:58:02;102201.94;;;20.40;76.33
30516;BME280;17297;54.022;10.760;2023-08-17T12:00:34;102209.34;;;20.33;75.30
30516;BME280;17297;54.022;10.760;2023-08-17T12:03:00;102208.59;;;20.26;75.11
30516;BME280;17297;54.022;10.760;2023-08-17T12:05:25;102220.41;;;20.20;75.13
30516;BME280;17297;54.022;10.760;2023-08-17T12:07:53;102215.38;;;20.17;74.50
30516;BME280;17297;54.022;10.760;2023-08-17T12:10:19;102217.09;;;20.11;74.65
30516;BME280;17297;54.022;10.760;2023-08-17T12:12:46;102218.16;;;20.10;74.39
30516;BME280;17297;54.022;10.760;2023-08-17T12:15:13;102218.38;;;20.08;74.10
30516;BME280;17297;54.022;10.760;2023-08-17T12:17:49;102207.88;;;20.05;74.25
30516;BME280;17297;54.022;10.760;2023-08-17T12:20:19;102198.22;;;20.03;73.78
30516;BME280;17297;54.022;10.760;2023-08-17T12:22:46;102191.34;;;20.00;73.73
30516;BME280;17297;54.022;10.760;2023-08-17T12:25:12;102195.34;;;19.98;73.40
30516;BME280;17297;54.022;10.760;2023-08-17T12:27:37;102196.38;;;19.97;73.65
30516;BME280;17297;54.022;10.760;2023-08-17T12:30:03;102187.53;;;20.01;73.76
30516;BME280;17297;54.022;10.760;2023-08-17T12:32:31;102187.47;;;20.08;74.03
30516;BME280;17297;54.022;10.760;2023-08-17T12:34:56;102186.84;;;20.13;74.04
30516;BME280;17297;54.022;10.760;2023-08-17T12:37:22;102192.25;;;20.19;74.71
30516;BME280;17297;54.022;10.760;2023-08-17T12:39:48;102185.91;;;20.25;74.75
30516;BME280;17297;54.022;10.760;2023-08-17T12:42:13;102168.81;;;20.30;74.56